»·PEaware :: DAL882 KSEA-KPDX

DAL882 :: KSEA-KPDX

FLIGHT INFORMATION

Flight Status: Arrived
Operator:
Delta Air Lines
More flights by this operator :: More flights under this callsign
Pilot: Max W. (2591)
Aircraft: AIRBUS A320
(A320)
More flights by this aircraft type
Origin: KSEA Seattle-Tacoma Intl
United States
Destination: KPDX Portland Intl
United States
More flights between these airports :: More routes between these airports
Route: +SEA6 BUWZO KRATR2
File this flight plan on PilotEdge
Remarks:
Altitude:
(Current/Filed)
23,000ft
Speed:
(Current/Filed)
450kts
Departed: 29-Aug-18 06:36 PM
Arrived: 29-Aug-18 07:03 PM
Distance/Time
Traveled:
112nm/0:26
Distance/Time
To Go:
Arrived

Flight Plot

Page will automatically refresh every two minutes.

Flight plan parsing failed; only flown route is shown


Map Options




Map Legend


Flown Route
Filed Route
Departure Airport
Arrival Airport
Navaid (VOR, NDB)
Fix

Horizontal Profiles

Position Reports

Time Latitude Longitude Heading Altitude Ground
Speed
29-Aug-18 18:14 47.445007 -122.304433 126 358ft 0kts
29-Aug-18 18:15 47.445007 -122.304433 126 358ft 0kts
29-Aug-18 18:16 47.445007 -122.304433 126 358ft 0kts
29-Aug-18 18:17 47.445007 -122.304433 126 358ft 0kts
29-Aug-18 18:18 47.445007 -122.304433 126 358ft 0kts
29-Aug-18 18:19 47.445007 -122.304433 126 358ft 0kts
29-Aug-18 18:20 47.445007 -122.304433 126 358ft 0kts
29-Aug-18 18:21 47.445007 -122.304433 126 358ft 0kts
29-Aug-18 18:22 47.445007 -122.304433 126 358ft 0kts
29-Aug-18 18:23 47.445007 -122.304433 126 358ft 0kts
29-Aug-18 18:24 47.445007 -122.304433 126 358ft 0kts
29-Aug-18 18:25 47.445007 -122.304433 126 358ft 0kts
29-Aug-18 18:26 47.445007 -122.304434 126 358ft 0kts
29-Aug-18 18:27 47.445067 -122.304567 118 358ft 2kts
29-Aug-18 18:28 47.445360 -122.305299 121 358ft 0kts
29-Aug-18 18:29 47.445360 -122.305298 121 358ft 0kts
29-Aug-18 18:30 47.445357 -122.305292 121 358ft 0kts
29-Aug-18 18:31 47.451906 -122.306252 0 358ft 38kts
29-Aug-18 18:32 47.460229 -122.306150 4 358ft 26kts
29-Aug-18 18:33 47.462841 -122.306156 359 358ft 0kts
29-Aug-18 18:34 47.463053 -122.306152 2 358ft 8kts
29-Aug-18 18:35 47.463442 -122.306177 344 358ft 0kts
29-Aug-18 18:36 47.463615 -122.306311 318 358ft 0kts
29-Aug-18 18:37 47.450970 -122.307862 181 419ft 169kts
29-Aug-18 18:38 47.397007 -122.308659 183 3914ft 225kts
29-Aug-18 18:39 47.326614 -122.309531 183 7210ft 277kts
29-Aug-18 18:40 47.254113 -122.309573 184 10570ft 298kts
29-Aug-18 18:41 47.160691 -122.309877 184 12155ft 373kts
29-Aug-18 18:42 47.059151 -122.309705 184 14660ft 385kts
29-Aug-18 18:43 46.958167 -122.309655 184 15245ft 391kts
29-Aug-18 18:44 46.851746 -122.309624 184 17870ft 392kts
29-Aug-18 18:45 46.748011 -122.309502 185 21301ft 374kts
29-Aug-18 18:46 46.645469 -122.309607 185 22965ft 380kts
29-Aug-18 18:47 46.541999 -122.309569 185 22021ft 370kts
29-Aug-18 18:48 46.442353 -122.309481 185 18623ft 353kts
29-Aug-18 18:49 46.347937 -122.309480 184 15326ft 336kts
29-Aug-18 18:50 46.261980 -122.310180 191 12249ft 319kts
29-Aug-18 18:51 46.181913 -122.351520 205 10087ft 306kts
29-Aug-18 18:52 46.104881 -122.394344 205 10071ft 284kts
29-Aug-18 18:53 46.032017 -122.433989 204 8637ft 281kts
29-Aug-18 18:54 45.959183 -122.473200 204 7116ft 281kts
29-Aug-18 18:55 45.884148 -122.473946 169 6391ft 289kts
29-Aug-18 18:56 45.806601 -122.448946 169 6005ft 289kts
29-Aug-18 18:57 45.730756 -122.424724 169 5071ft 278kts
29-Aug-18 18:58 45.656321 -122.401909 169 4015ft 274kts
29-Aug-18 18:59 45.589481 -122.364187 149 3620ft 248kts
29-Aug-18 19:00 45.531913 -122.349212 230 3121ft 214kts
29-Aug-18 19:01 45.529038 -122.429229 283 2017ft 222kts
29-Aug-18 19:02 45.550175 -122.505866 300 1275ft 195kts
29-Aug-18 19:03 45.571991 -122.562017 301 396ft 130kts
29-Aug-18 19:04 45.586433 -122.597201 347 25ft 25kts
29-Aug-18 19:05 45.587389 -122.596822 45 25ft 8kts

Navigation Log

Ident Type
Flight plan parsing failed, navigation log unavailable